Time;durP1;ratioP1;P1;durP2;ratioP2;P2;SDS_P1;SDS_P2;PMS_P1;PMS_P2;Temp;Humidity;BMP_temperature;BMP_pressure;BME280_temperature;BME280_humidity;BME280_pressure;Samples;Min_cycle;Max_cycle;Signal;HPM_P1;HPM_P2
2022/07/14 00:00:41;;;;;;;11.55;2.50;;;20.20;99.90;;;;;;7340124;19;107779;-86
2022/07/14 00:03:08;;;;;;;9.48;2.70;;;20.10;99.90;;;;;;7342049;19;108913;-86
2022/07/14 00:05:35;;;;;;;10.02;2.40;;;20.00;99.90;;;;;;7347229;19;107286;-86
2022/07/14 00:08:04;;;;;;;8.00;2.28;;;20.10;99.90;;;;;;7337589;19;108613;-86
2022/07/14 00:10:31;;;;;;;5.05;2.03;;;20.00;99.90;;;;;;7342736;19;107997;-87
2022/07/14 00:12:58;;;;;;;11.85;2.38;;;20.00;99.90;;;;;;7337282;19;108261;-86
2022/07/14 00:15:25;;;;;;;9.50;2.17;;;20.10;99.90;;;;;;7340186;19;108419;-86
2022/07/14 00:17:52;;;;;;;9.60;2.20;;;20.20;99.90;;;;;;7338418;19;108010;-85
2022/07/14 00:20:19;;;;;;;7.20;2.20;;;20.30;99.90;;;;;;7342818;19;108822;-86
2022/07/14 00:22:47;;;;;;;8.18;1.88;;;20.40;99.90;;;;;;7339655;19;108764;-85
2022/07/14 00:25:14;;;;;;;8.45;2.00;;;20.50;99.90;;;;;;7340409;19;108209;-86
2022/07/14 00:27:41;;;;;;;6.85;2.03;;;20.60;99.90;;;;;;7347126;19;108503;-86
2022/07/14 00:30:09;;;;;;;11.32;2.17;;;20.60;99.90;;;;;;7339548;19;110033;-86
2022/07/14 00:32:37;;;;;;;7.25;2.25;;;20.60;99.90;;;;;;7340117;19;107346;-87
2022/07/14 00:35:05;;;;;;;9.45;2.30;;;20.60;99.90;;;;;;7340358;19;110295;-85
2022/07/14 00:37:32;;;;;;;6.57;1.98;;;20.60;99.90;;;;;;7339248;19;107811;-86
2022/07/14 00:40:02;;;;;;;8.27;1.75;;;20.70;99.90;;;;;;7338797;19;108007;-86
2022/07/14 00:42:43;;;;;;;6.28;1.65;;;20.70;99.90;;;;;;7335955;19;108800;-86
2022/07/14 00:45:13;;;;;;;10.93;2.00;;;20.70;99.90;;;;;;7336829;19;108124;-86
2022/07/14 00:47:41;;;;;;;8.05;1.95;;;20.70;99.90;;;;;;7340619;19;109290;-86
2022/07/14 00:50:10;;;;;;;5.82;2.00;;;20.70;99.90;;;;;;7344170;19;108855;-87
2022/07/14 00:52:43;;;;;;;9.75;2.50;;;20.70;99.90;;;;;;7337511;19;107502;-86
2022/07/14 00:55:12;;;;;;;12.35;2.70;;;20.70;99.90;;;;;;7341532;19;109184;-86
2022/07/14 00:57:40;;;;;;;8.45;2.75;;;20.50;99.90;;;;;;7336784;19;108000;-85
2022/07/14 01:00:12;;;;;;;13.73;2.55;;;20.40;99.90;;;;;;7339689;19;108844;-86
2022/07/14 01:02:41;;;;;;;7.60;2.65;;;20.30;99.90;;;;;;7337084;19;109092;-86
2022/07/14 01:05:09;;;;;;;12.65;3.25;;;20.20;99.90;;;;;;7336813;19;107908;-86
2022/07/14 01:07:36;;;;;;;9.13;2.75;;;20.10;99.90;;;;;;7338432;19;108140;-86
2022/07/14 01:10:04;;;;;;;10.55;2.63;;;20.10;99.90;;;;;;7338570;19;110303;-86
2022/07/14 01:12:31;;;;;;;9.68;2.60;;;20.00;99.90;;;;;;7342806;19;110334;-85
2022/07/14 01:14:59;;;;;;;7.63;2.55;;;19.90;99.90;;;;;;7338137;19;108793;-86
2022/07/14 01:17:26;;;;;;;9.02;2.60;;;19.80;99.90;;;;;;7339315;19;110210;-86
2022/07/14 01:19:53;;;;;;;11.60;2.50;;;19.80;99.90;;;;;;7337412;19;111155;-86
2022/07/14 01:22:20;;;;;;;13.98;3.10;;;19.80;99.90;;;;;;7336091;19;108218;-85
2022/07/14 01:24:47;;;;;;;12.02;2.50;;;19.80;99.90;;;;;;7339314;19;107060;-84
2022/07/14 01:27:14;;;;;;;14.07;3.20;;;19.70;99.90;;;;;;7336563;19;108170;-86
2022/07/14 01:29:41;;;;;;;14.82;3.10;;;19.60;99.90;;;;;;7339005;19;112265;-85
2022/07/14 01:32:08;;;;;;;10.55;2.38;;;19.50;99.90;;;;;;7337202;19;108111;-85
2022/07/14 01:34:35;;;;;;;13.13;2.28;;;19.60;99.90;;;;;;7345131;19;111986;-87
2022/07/14 01:37:02;;;;;;;11.85;2.08;;;19.70;99.90;;;;;;7339031;19;107616;-86
2022/07/14 01:39:29;;;;;;;10.00;2.25;;;19.90;99.90;;;;;;7336750;19;110816;-86
2022/07/14 01:41:56;;;;;;;13.38;2.60;;;20.00;99.90;;;;;;7337328;19;107898;-87
2022/07/14 01:44:23;;;;;;;15.90;2.40;;;20.10;99.90;;;;;;7338440;19;107204;-85
2022/07/14 01:46:50;;;;;;;11.35;2.30;;;20.10;99.90;;;;;;7339922;19;111678;-86
2022/07/14 01:49:17;;;;;;;8.95;2.38;;;20.10;99.90;;;;;;7340091;19;110695;-86
2022/07/14 01:51:45;;;;;;;15.13;3.05;;;20.00;99.90;;;;;;7342353;19;108074;-85
2022/07/14 01:54:12;;;;;;;14.15;3.20;;;19.80;99.90;;;;;;7347532;19;107262;-86
2022/07/14 01:56:40;;;;;;;7.82;2.22;;;19.80;99.90;;;;;;7344765;19;108153;-86
2022/07/14 01:59:08;;;;;;;11.38;2.70;;;19.70;99.90;;;;;;7343868;19;108181;-86
2022/07/14 02:01:39;;;;;;;14.32;2.60;;;19.70;99.90;;;;;;7344322;19;109449;-86
2022/07/14 02:04:11;;;;;;;11.30;2.40;;;19.70;99.90;;;;;;7346394;19;107596;-85
2022/07/14 02:06:44;;;;;;;11.20;2.53;;;19.60;99.90;;;;;;7345569;19;108300;-86
2022/07/14 02:09:12;;;;;;;12.23;2.67;;;19.50;99.90;;;;;;7344473;19;108873;-85
2022/07/14 02:14:25;;;;;;;11.85;2.28;;;19.40;99.90;;;;;;7344803;19;107275;-85
2022/07/14 02:16:54;;;;;;;12.02;2.80;;;19.40;99.90;;;;;;7350424;19;108275;-86
2022/07/14 02:19:23;;;;;;;8.50;2.42;;;19.40;99.90;;;;;;7342656;19;108269;-86
2022/07/14 02:21:52;;;;;;;11.75;2.42;;;19.40;99.90;;;;;;7342898;19;109140;-85
2022/07/14 02:24:20;;;;;;;13.57;2.20;;;19.50;99.90;;;;;;7346470;19;111146;-85
2022/07/14 02:26:50;;;;;;;11.20;2.45;;;19.60;99.90;;;;;;7342656;19;107953;-85
2022/07/14 02:29:19;;;;;;;15.05;2.92;;;19.70;99.90;;;;;;7344211;19;108897;-85
2022/07/14 02:31:46;;;;;;;10.02;2.65;;;19.60;99.90;;;;;;7345184;19;107892;-86
2022/07/14 02:34:14;;;;;;;11.80;2.95;;;19.40;99.90;;;;;;7341622;19;107814;-86
2022/07/14 02:36:41;;;;;;;11.48;2.90;;;19.30;99.90;;;;;;7340389;19;108993;-86
2022/07/14 02:39:08;;;;;;;18.25;3.55;;;19.20;99.90;;;;;;7348655;19;107678;-85
2022/07/14 02:41:35;;;;;;;12.85;2.67;;;19.10;99.90;;;;;;7341729;19;109227;-85
2022/07/14 02:44:03;;;;;;;13.20;3.10;;;19.00;99.90;;;;;;7343279;19;110587;-85
2022/07/14 02:46:30;;;;;;;9.75;2.97;;;18.90;99.90;;;;;;7344098;19;107966;-83
2022/07/14 02:48:57;;;;;;;11.82;2.70;;;18.80;99.90;;;;;;7340647;19;109181;-86
2022/07/14 02:51:24;;;;;;;11.25;2.53;;;18.80;99.90;;;;;;7344174;19;108272;-86
2022/07/14 02:53:51;;;;;;;10.02;2.60;;;18.70;99.90;;;;;;7342448;19;107833;-85
2022/07/14 02:56:18;;;;;;;17.65;3.38;;;18.70;99.90;;;;;;7344955;19;109026;-86
2022/07/14 02:58:46;;;;;;;11.18;2.85;;;18.70;99.90;;;;;;7344147;19;109856;-86
2022/07/14 03:01:13;;;;;;;12.05;2.28;;;18.60;99.90;;;;;;7348011;19;107886;-79
2022/07/14 03:03:40;;;;;;;12.05;2.75;;;18.50;99.90;;;;;;7335458;19;108767;-80
2022/07/14 03:06:15;;;;;;;14.13;2.78;;;18.50;99.90;;;;;;7340977;19;108263;-80
2022/07/14 03:08:43;;;;;;;13.88;2.70;;;18.40;99.90;;;;;;7343218;19;109105;-80
2022/07/14 03:11:10;;;;;;;14.32;2.72;;;18.30;99.90;;;;;;7343227;19;108006;-80
2022/07/14 03:13:38;;;;;;;15.18;3.00;;;18.30;99.90;;;;;;7344159;19;111050;-79
2022/07/14 03:16:08;;;;;;;13.13;2.95;;;18.30;99.90;;;;;;7343469;19;108991;-80
2022/07/14 03:18:37;;;;;;;14.35;2.63;;;18.40;99.90;;;;;;7344714;19;107976;-80
2022/07/14 03:21:06;;;;;;;11.30;2.65;;;18.40;99.90;;;;;;7341555;19;107990;-79
2022/07/14 03:23:34;;;;;;;13.00;2.53;;;18.50;99.90;;;;;;7343868;19;110254;-80
2022/07/14 03:26:01;;;;;;;10.95;2.30;;;18.50;99.90;;;;;;7342456;19;108739;-79
2022/07/14 03:28:29;;;;;;;11.95;2.42;;;18.50;99.90;;;;;;7339455;19;109690;-79
2022/07/14 03:30:56;;;;;;;11.05;2.80;;;18.50;99.90;;;;;;7343427;19;107638;-80
2022/07/14 03:33:24;;;;;;;12.45;2.20;;;18.50;99.90;;;;;;7343046;19;111324;-79
2022/07/14 03:35:51;;;;;;;12.75;2.80;;;18.50;99.90;;;;;;7342862;19;108926;-80
2022/07/14 03:38:19;;;;;;;17.25;3.08;;;18.50;99.90;;;;;;7342737;19;108354;-81
2022/07/14 03:41:03;;;;;;;18.48;2.70;;;18.50;99.90;;;;;;7339125;19;108293;-80
2022/07/14 03:43:32;;;;;;;11.68;2.50;;;18.50;99.90;;;;;;7338239;19;108940;-79
2022/07/14 03:45:59;;;;;;;13.73;3.15;;;18.50;99.90;;;;;;7346614;19;111207;-80
2022/07/14 03:48:26;;;;;;;10.45;2.38;;;18.50;99.90;;;;;;7339702;19;108491;-81
2022/07/14 03:50:53;;;;;;;14.90;2.85;;;18.50;99.90;;;;;;7342397;19;107939;-79
2022/07/14 03:53:20;;;;;;;11.38;2.95;;;18.40;99.90;;;;;;7340191;19;110592;-80
2022/07/14 03:55:48;;;;;;;9.93;2.17;;;18.30;99.90;;;;;;7340243;19;111163;-80
2022/07/14 03:58:19;;;;;;;19.65;2.85;;;18.20;99.90;;;;;;7339497;19;108595;-79
2022/07/14 04:00:47;;;;;;;11.48;2.78;;;18.00;99.90;;;;;;7339224;19;107343;-80
2022/07/14 04:03:14;;;;;;;15.00;2.97;;;18.00;99.90;;;;;;7339082;19;108367;-80
2022/07/14 04:05:42;;;;;;;17.02;3.10;;;17.90;99.90;;;;;;7346838;19;108176;-80
2022/07/14 04:08:10;;;;;;;18.40;3.03;;;17.90;99.90;;;;;;7339316;19;109337;-80
2022/07/14 04:10:37;;;;;;;13.48;2.70;;;18.00;99.90;;;;;;7342091;19;109332;-79
2022/07/14 04:13:04;;;;;;;18.00;2.95;;;17.90;99.90;;;;;;7341813;19;107826;-80
2022/07/14 04:15:32;;;;;;;14.10;2.92;;;17.90;99.90;;;;;;7339390;19;109207;-80
2022/07/14 04:17:59;;;;;;;13.82;2.70;;;18.00;99.90;;;;;;7341627;19;109572;-80
2022/07/14 04:20:27;;;;;;;17.10;2.72;;;17.90;99.90;;;;;;7341987;19;107587;-80
2022/07/14 04:22:54;;;;;;;24.75;2.70;;;18.00;99.90;;;;;;7340819;19;108900;-80
2022/07/14 04:25:21;;;;;;;14.88;2.70;;;17.90;99.90;;;;;;7340438;19;107412;-79
2022/07/14 04:27:48;;;;;;;17.67;3.00;;;17.90;99.90;;;;;;7344676;19;110062;-79
2022/07/14 04:30:15;;;;;;;13.18;2.53;;;17.90;99.90;;;;;;7338447;19;107945;-80
2022/07/14 04:32:42;;;;;;;18.42;2.85;;;17.90;99.90;;;;;;7341960;19;107710;-79
2022/07/14 04:35:10;;;;;;;11.60;2.38;;;18.00;99.90;;;;;;7340880;19;112866;-80
2022/07/14 04:37:38;;;;;;;15.80;2.88;;;18.00;99.90;;;;;;7340526;19;107813;-79
2022/07/14 04:40:06;;;;;;;16.20;2.70;;;18.00;99.90;;;;;;7341780;19;108245;-80
2022/07/14 04:42:33;;;;;;;13.75;2.83;;;18.10;99.90;;;;;;7339727;19;108902;-80
2022/07/14 04:45:00;;;;;;;15.63;2.70;;;18.10;99.90;;;;;;7339992;19;108016;-80
2022/07/14 04:47:27;;;;;;;18.10;3.08;;;18.00;99.90;;;;;;7339251;19;110825;-80
2022/07/14 04:52:47;;;;;;;13.52;2.70;;;18.20;99.90;;;;;;7341017;19;109835;-80
2022/07/14 04:55:16;;;;;;;19.98;3.08;;;18.30;99.90;;;;;;7340171;19;109526;-79
2022/07/14 04:57:43;;;;;;;15.20;2.70;;;18.30;99.90;;;;;;7339570;19;108400;-79
2022/07/14 05:00:11;;;;;;;13.13;2.67;;;18.20;99.90;;;;;;7340724;19;108621;-80
2022/07/14 05:02:38;;;;;;;13.18;2.65;;;18.20;99.90;;;;;;7339080;19;111619;-79
2022/07/14 05:05:06;;;;;;;13.07;2.60;;;18.20;99.90;;;;;;7339893;19;108325;-80
2022/07/14 05:07:33;;;;;;;14.85;3.10;;;18.10;99.90;;;;;;7338814;19;107931;-80
2022/07/14 05:10:01;;;;;;;13.02;2.67;;;18.10;99.90;;;;;;7340179;19;109224;-80
2022/07/14 05:12:29;;;;;;;15.98;2.95;;;18.20;99.90;;;;;;7345163;19;107021;-80
2022/07/14 05:14:56;;;;;;;18.67;2.80;;;18.30;99.90;;;;;;7338714;19;108915;-80
2022/07/14 05:17:23;;;;;;;14.63;2.85;;;18.30;99.90;;;;;;7338514;19;108878;-80
2022/07/14 05:19:52;;;;;;;18.77;3.17;;;18.40;99.90;;;;;;7340372;19;107223;-79
2022/07/14 05:22:19;;;;;;;19.83;3.13;;;18.50;99.90;;;;;;7338079;19;112598;-79
2022/07/14 05:24:46;;;;;;;17.88;3.42;;;18.50;99.90;;;;;;7338283;19;108841;-81
2022/07/14 05:27:13;;;;;;;24.08;3.65;;;18.50;99.90;;;;;;7344697;19;111474;-83
2022/07/14 05:29:40;;;;;;;17.00;3.33;;;18.50;99.90;;;;;;7344483;19;109319;-82
2022/07/14 05:32:07;;;;;;;14.35;2.95;;;18.50;99.90;;;;;;7346284;19;107346;-82
2022/07/14 05:34:44;;;;;;;24.10;3.20;;;18.60;99.90;;;;;;7352616;19;108249;-82
2022/07/14 05:37:11;;;;;;;10.60;2.83;;;18.50;99.90;;;;;;7347602;19;108048;-82
2022/07/14 05:39:38;;;;;;;13.82;2.63;;;18.60;99.90;;;;;;7345510;19;107622;-81
2022/07/14 05:42:06;;;;;;;18.33;2.92;;;18.70;99.90;;;;;;7345059;19;108520;-82
2022/07/14 05:44:36;;;;;;;19.38;3.25;;;18.90;99.90;;;;;;7344396;19;108252;-83
2022/07/14 05:47:03;;;;;;;16.65;3.10;;;19.00;99.90;;;;;;7345233;19;108219;-82
2022/07/14 05:49:31;;;;;;;14.65;2.97;;;19.10;99.90;;;;;;7344785;19;111352;-82
2022/07/14 05:51:58;;;;;;;14.48;2.65;;;19.10;99.90;;;;;;7344284;19;107858;-83
2022/07/14 05:54:25;;;;;;;14.50;3.22;;;19.20;99.90;;;;;;7345974;19;107834;-83
2022/07/14 05:56:52;;;;;;;15.80;3.47;;;19.30;99.90;;;;;;7351255;19;109014;-83
2022/07/14 05:59:19;;;;;;;26.95;3.25;;;19.50;99.90;;;;;;7342405;19;108255;-82
2022/07/14 06:02:06;;;;;;;14.63;2.70;;;19.60;99.90;;;;;;7345257;19;110282;-83
2022/07/14 06:04:34;;;;;;;13.27;3.33;;;19.70;99.90;;;;;;7344074;19;108242;-82
2022/07/14 06:07:01;;;;;;;15.95;3.03;;;19.80;99.90;;;;;;7346265;19;107823;-83
2022/07/14 06:09:28;;;;;;;14.85;3.13;;;19.70;99.90;;;;;;7346341;19;108565;-83
2022/07/14 06:11:55;;;;;;;20.48;3.38;;;19.70;99.90;;;;;;7346484;19;110252;-84
2022/07/14 06:14:22;;;;;;;15.02;3.30;;;19.70;99.90;;;;;;7344093;19;109823;-83
2022/07/14 06:16:49;;;;;;;17.20;3.47;;;19.70;99.90;;;;;;7352869;19;108822;-84
2022/07/14 06:19:16;;;;;;;17.50;3.22;;;19.60;99.90;;;;;;7346689;19;110450;-83
2022/07/14 06:21:43;;;;;;;23.60;3.60;;;19.60;99.90;;;;;;7344719;19;109279;-84
2022/07/14 06:24:13;;;;;;;15.00;3.33;;;19.60;99.90;;;;;;7343053;19;109680;-83
2022/07/14 06:26:40;;;;;;;17.30;3.47;;;19.60;99.90;;;;;;7344693;19;107544;-84
2022/07/14 06:29:08;;;;;;;23.40;3.95;;;19.70;99.90;;;;;;7342406;19;109072;-83
2022/07/14 06:31:36;;;;;;;14.30;3.65;;;19.90;99.90;;;;;;7345837;19;108540;-83
2022/07/14 06:34:03;;;;;;;23.23;4.72;;;20.10;99.90;;;;;;7346197;19;107881;-83
2022/07/14 06:36:31;;;;;;;19.45;4.07;;;20.20;99.90;;;;;;7343657;19;108207;-80
2022/07/14 06:38:59;;;;;;;19.48;3.90;;;20.30;99.90;;;;;;7347860;19;107631;-80
2022/07/14 06:41:26;;;;;;;19.50;3.92;;;20.40;99.90;;;;;;7344150;19;108981;-81
2022/07/14 06:43:53;;;;;;;14.55;3.47;;;20.40;99.90;;;;;;7342300;19;109516;-80
2022/07/14 06:46:20;;;;;;;20.73;4.25;;;20.40;99.90;;;;;;7342863;19;108257;-78
2022/07/14 06:48:47;;;;;;;19.60;4.05;;;20.40;99.90;;;;;;7343369;19;111065;-78
2022/07/14 06:51:15;;;;;;;15.75;3.67;;;20.40;99.90;;;;;;7344615;19;109594;-79
2022/07/14 06:53:41;;;;;;;13.88;3.72;;;20.40;99.90;;;;;;7342942;19;109387;-79
2022/07/14 06:56:08;;;;;;;15.27;3.55;;;20.40;99.90;;;;;;7344139;19;108428;-79
2022/07/14 06:58:36;;;;;;;15.90;3.40;;;20.50;99.90;;;;;;7343103;19;111421;-79
2022/07/14 07:01:03;;;;;;;17.27;4.13;;;20.60;99.90;;;;;;7349746;19;108449;-79
2022/07/14 07:03:31;;;;;;;21.40;3.80;;;20.80;99.90;;;;;;7342240;19;108009;-79
2022/07/14 07:08:44;;;;;;;18.05;2.97;;;20.80;99.90;;;;;;7345390;19;109000;-79
2022/07/14 07:11:11;;;;;;;15.77;3.10;;;20.70;99.90;;;;;;7344266;19;107561;-79
2022/07/14 07:13:38;;;;;;;13.00;3.20;;;20.60;99.90;;;;;;7344091;19;109414;-79
2022/07/14 07:16:06;;;;;;;15.65;2.75;;;20.60;99.90;;;;;;7344660;19;108993;-79
2022/07/14 07:18:35;;;;;;;13.30;3.03;;;20.70;99.90;;;;;;7344154;19;108378;-79
2022/07/14 07:21:03;;;;;;;17.52;3.08;;;20.80;99.90;;;;;;7341118;19;109787;-79
2022/07/14 07:23:32;;;;;;;16.58;3.33;;;20.70;99.90;;;;;;7348393;19;108888;-79
2022/07/14 07:25:59;;;;;;;10.27;3.05;;;20.60;99.90;;;;;;7342628;19;108133;-79
2022/07/14 07:28:26;;;;;;;12.10;2.80;;;20.70;99.90;;;;;;7341756;19;111323;-79
2022/07/14 07:30:53;;;;;;;23.75;3.47;;;20.70;99.90;;;;;;7343506;19;107445;-79
2022/07/14 07:33:20;;;;;;;22.33;3.97;;;20.70;99.90;;;;;;7343030;19;110697;-78
2022/07/14 07:35:47;;;;;;;16.13;3.17;;;20.90;99.90;;;;;;7341382;19;113370;-79
2022/07/14 07:38:16;;;;;;;18.98;3.33;;;20.90;99.90;;;;;;7341727;19;107058;-79
2022/07/14 07:40:44;;;;;;;23.58;3.47;;;21.00;99.90;;;;;;7342761;19;108398;-79
2022/07/14 07:43:11;;;;;;;24.70;3.33;;;21.00;99.90;;;;;;7343355;19;108898;-79
2022/07/14 07:45:38;;;;;;;19.08;3.40;;;21.10;99.90;;;;;;7347576;19;107940;-79
2022/07/14 07:48:06;;;;;;;13.98;3.22;;;21.20;99.90;;;;;;7341277;19;109490;-78
2022/07/14 07:50:33;;;;;;;12.90;2.63;;;21.30;99.90;;;;;;7341491;19;107833;-79
2022/07/14 07:53:01;;;;;;;13.57;2.85;;;21.50;99.90;;;;;;7343581;19;108399;-79
2022/07/14 07:55:28;;;;;;;17.00;2.97;;;21.70;99.90;;;;;;7343846;19;108855;-79
2022/07/14 07:57:55;;;;;;;13.27;2.83;;;21.80;99.90;;;;;;7343240;19;109104;-79
2022/07/14 08:00:22;;;;;;;23.95;3.03;;;22.00;99.90;;;;;;7339831;19;109526;-79
2022/07/14 08:02:53;;;;;;;17.92;2.60;;;22.10;99.90;;;;;;7340722;19;107939;-79
2022/07/14 08:05:24;;;;;;;11.50;1.90;;;22.30;99.90;;;;;;7340575;19;108899;-79
2022/07/14 08:08:12;;;;;;;13.35;2.30;;;22.40;99.50;;;;;;7343572;19;108238;-79
2022/07/14 08:10:39;;;;;;;15.40;2.63;;;22.30;99.70;;;;;;7340733;19;110926;-79
2022/07/14 08:13:08;;;;;;;13.48;2.45;;;22.20;99.90;;;;;;7342265;19;108334;-79
2022/07/14 08:15:36;;;;;;;36.95;3.42;;;22.10;99.90;;;;;;7342147;19;109218;-79
2022/07/14 08:18:04;;;;;;;32.67;2.53;;;22.20;99.80;;;;;;7340407;19;108239;-79
2022/07/14 08:20:32;;;;;;;19.45;2.47;;;22.20;99.60;;;;;;7342017;19;108213;-78
2022/07/14 08:23:00;;;;;;;12.50;2.22;;;22.30;99.90;;;;;;7340646;19;110843;-79
2022/07/14 08:25:28;;;;;;;16.30;2.42;;;22.40;99.60;;;;;;7337875;19;108079;-78
2022/07/14 08:27:55;;;;;;;11.65;1.90;;;22.40;98.50;;;;;;7346637;19;108624;-79
2022/07/14 08:30:23;;;;;;;8.30;1.23;;;22.40;98.20;;;;;;7342040;19;107583;-79
2022/07/14 08:32:51;;;;;;;6.70;1.45;;;22.40;95.60;;;;;;7340965;19;108332;-79
2022/07/14 08:35:24;;;;;;;7.32;1.63;;;22.50;97.30;;;;;;7340633;19;108903;-79
2022/07/14 08:37:53;;;;;;;9.18;1.52;;;22.60;96.70;;;;;;7339488;19;108520;-79
2022/07/14 08:40:24;;;;;;;9.35;1.60;;;22.90;97.10;;;;;;7341911;19;108594;-78
2022/07/14 08:42:53;;;;;;;12.23;1.85;;;23.00;97.20;;;;;;7339915;19;110234;-79
2022/07/14 08:45:22;;;;;;;10.27;1.70;;;23.10;96.40;;;;;;7338879;19;108180;-79
2022/07/14 08:47:50;;;;;;;9.98;1.85;;;22.90;96.70;;;;;;7340209;19;108259;-79
2022/07/14 08:50:19;;;;;;;7.97;1.85;;;23.00;96.90;;;;;;7344855;19;109034;-78
2022/07/14 08:52:47;;;;;;;12.55;1.80;;;23.10;97.00;;;;;;7340117;19;110526;-78
2022/07/14 08:55:17;;;;;;;11.38;1.80;;;23.10;96.80;;;;;;7340760;19;108646;-78
2022/07/14 08:57:45;;;;;;;10.10;1.58;;;23.10;96.70;;;;;;7341061;19;107269;-79
2022/07/14 09:00:15;;;;;;;7.03;1.85;;;23.10;96.50;;;;;;7337330;19;108580;-78
2022/07/14 09:02:51;;;;;;;11.20;1.63;;;22.90;96.70;;;;;;7339794;19;108969;-79
2022/07/14 09:05:43;;;;;;;11.68;1.88;;;22.90;96.50;;;;;;7339360;19;108126;-79
2022/07/14 09:08:12;;;;;;;10.73;1.73;;;22.90;97.20;;;;;;7338100;19;108168;-79
2022/07/14 09:10:41;;;;;;;11.57;1.45;;;23.10;96.70;;;;;;7340856;19;109172;-79
2022/07/14 09:13:33;;;;;;;15.60;1.90;;;23.10;96.90;;;;;;7346431;19;108202;-79
2022/07/14 09:16:22;;;;;;;11.00;1.88;;;23.10;96.30;;;;;;7339165;19;108156;-79
2022/07/14 09:19:09;;;;;;;5.68;1.42;;;23.20;96.30;;;;;;7338890;19;107527;-79
2022/07/14 09:21:46;;;;;;;11.48;1.42;;;23.30;95.90;;;;;;7339510;19;108135;-79
2022/07/14 09:24:14;;;;;;;6.05;1.48;;;23.50;96.40;;;;;;7338287;19;109484;-79
2022/07/14 09:26:46;;;;;;;10.23;1.60;;;23.70;95.60;;;;;;7340077;19;107374;-79
2022/07/14 09:29:21;;;;;;;5.22;1.30;;;23.80;94.10;;;;;;7338114;19;108261;-79
2022/07/14 09:31:49;;;;;;;7.13;1.35;;;23.50;92.60;;;;;;7338613;19;108610;-79
2022/07/14 09:34:26;;;;;;;4.85;1.10;;;23.50;93.60;;;;;;7339302;19;109176;-78
2022/07/14 09:37:13;;;;;;;3.83;1.03;;;23.50;91.00;;;;;;7344882;19;107415;-79
2022/07/14 09:39:57;;;;;;;5.82;1.50;;;23.40;90.50;;;;;;7339724;19;107137;-78
2022/07/14 09:42:47;;;;;;;5.20;1.20;;;23.30;91.10;;;;;;7338234;19;108277;-78
2022/07/14 09:45:15;;;;;;;16.75;1.52;;;23.40;92.50;;;;;;7335801;19;110401;-79
2022/07/14 09:48:02;;;;;;;5.40;1.30;;;23.70;92.70;;;;;;7338406;19;108287;-79
2022/07/14 09:50:41;;;;;;;7.57;1.20;;;23.90;92.30;;;;;;7340004;19;108129;-78
2022/07/14 09:53:31;;;;;;;10.13;1.30;;;24.10;93.50;;;;;;7339124;19;108987;-80
2022/07/14 09:56:09;;;;;;;23.80;2.00;;;24.10;92.20;;;;;;7337304;19;107489;-79
2022/07/14 09:58:43;;;;;;;7.82;1.27;;;24.20;93.20;;;;;;7339750;19;109267;-78
2022/07/14 10:01:15;;;;;;;9.98;1.30;;;24.30;92.80;;;;;;7343965;19;108585;-79
2022/07/14 10:03:46;;;;;;;11.23;1.48;;;24.60;92.90;;;;;;7337512;19;109141;-79
2022/07/14 10:06:14;;;;;;;6.57;1.10;;;24.70;91.80;;;;;;7334347;19;108878;-78
2022/07/14 10:09:01;;;;;;;10.57;1.30;;;25.00;92.00;;;;;;7337214;19;107381;-79
2022/07/14 10:11:29;;;;;;;7.38;1.13;;;25.10;91.50;;;;;;7338281;19;109448;-79
2022/07/14 10:13:58;;;;;;;6.72;1.02;;;25.20;90.40;;;;;;7343656;19;108966;-79
2022/07/14 10:16:34;;;;;;;2.38;0.63;;;25.40;89.90;;;;;;7346385;19;107478;-79
2022/07/14 10:19:03;;;;;;;;;;;25.50;85.00;;;;;;7345999;19;108228;-79
2022/07/14 10:21:39;;;;;;;6.43;1.10;;;25.50;84.70;;;;;;7350444;19;109473;-78
2022/07/14 10:24:08;;;;;;;5.75;1.20;;;25.40;86.20;;;;;;7348644;19;107565;-78
2022/07/14 10:26:36;;;;;;;4.10;0.80;;;25.40;85.70;;;;;;7343196;19;109711;-78
2022/07/14 10:29:08;;;;;;;4.55;0.77;;;25.30;85.60;;;;;;7341369;19;107916;-78
2022/07/14 10:32:22;;;;;;;4.28;0.80;;;25.30;82.20;;;;;;7343094;19;108049;-78
2022/07/14 10:35:10;;;;;;;10.02;1.10;;;25.30;83.30;;;;;;7339532;19;108255;-78
2022/07/14 10:37:40;;;;;;;8.00;1.05;;;25.30;85.10;;;;;;7341310;19;107987;-78
2022/07/14 10:40:36;;;;;;;6.75;1.08;;;25.50;87.50;;;;;;7341098;19;111392;-78
2022/07/14 10:43:16;;;;;;;3.45;1.10;;;25.60;86.50;;;;;;7341445;19;108794;-79
2022/07/14 10:45:51;;;;;;;5.88;1.17;;;25.50;82.30;;;;;;7344782;19;108036;-78
2022/07/14 10:48:32;;;;;;;3.88;0.98;;;25.60;83.00;;;;;;7342409;19;109056;-79
2022/07/14 10:51:14;;;;;;;9.70;1.77;;;25.70;84.00;;;;;;7340634;19;108242;-78
2022/07/14 10:54:16;;;;;;;5.55;0.93;;;25.50;80.30;;;;;;7339754;19;108463;-79
2022/07/14 10:57:14;;;;;;;4.43;1.10;;;25.40;81.90;;;;;;7338441;19;108707;-78
2022/07/14 10:59:43;;;;;;;7.75;0.95;;;25.50;85.30;;;;;;7339204;19;108140;-78
2022/07/14 11:02:13;;;;;;;8.40;1.10;;;25.70;85.00;;;;;;7338570;19;108569;-79
2022/07/14 11:07:40;;;;;;;6.37;1.30;;;25.70;81.90;;;;;;7338354;19;108485;-79
2022/07/14 11:10:19;;;;;;;4.50;1.15;;;25.50;78.60;;;;;;7345402;19;108788;-79
2022/07/14 11:13:04;;;;;;;8.48;1.23;;;25.30;77.40;;;;;;7343767;19;107416;-78
2022/07/14 11:15:50;;;;;;;10.07;1.38;;;24.90;79.00;;;;;;7343950;19;107991;-78
2022/07/14 11:18:17;;;;;;;3.65;1.10;;;24.90;80.90;;;;;;7343824;19;109652;-78
2022/07/14 11:20:55;;;;;;;5.65;1.27;;;25.00;80.70;;;;;;7345099;19;108308;-79
2022/07/14 11:23:45;;;;;;;6.20;1.30;;;25.00;80.80;;;;;;7342403;19;107471;-78
2022/07/14 11:26:41;;;;;;;5.85;1.20;;;25.10;80.40;;;;;;7339891;19;110251;-79
2022/07/14 11:29:15;;;;;;;16.67;1.40;;;25.00;81.00;;;;;;7343606;19;107769;-79
2022/07/14 11:31:47;;;;;;;7.45;1.00;;;25.00;81.30;;;;;;7342683;19;107749;-78
2022/07/14 11:37:11;;;;;;;12.77;1.02;;;25.40;82.90;;;;;;7344174;19;108156;-79
2022/07/14 11:39:58;;;;;;;4.18;1.20;;;25.60;83.10;;;;;;7343998;19;108149;-78
2022/07/14 11:42:25;;;;;;;6.22;1.25;;;25.90;83.10;;;;;;7342723;19;107934;-79
2022/07/14 11:44:52;;;;;;;5.10;0.95;;;26.00;79.70;;;;;;7341343;19;108271;-79
2022/07/14 11:47:23;;;;;;;7.07;1.60;;;26.00;81.20;;;;;;7343900;19;108634;-78
2022/07/14 11:49:55;;;;;;;6.25;1.30;;;25.90;77.90;;;;;;7340317;19;110614;-79
2022/07/14 11:52:36;;;;;;;7.40;1.00;;;25.80;78.60;;;;;;7341405;19;111242;-78
2022/07/14 11:55:06;;;;;;;8.05;1.35;;;25.80;77.00;;;;;;7343011;19;109058;-79
2022/07/14 11:57:33;;;;;;;6.55;1.50;;;25.80;78.70;;;;;;7346802;19;107906;-78
2022/07/14 12:00:08;;;;;;;7.10;1.70;;;25.80;76.50;;;;;;7341801;19;108943;-79
2022/07/14 12:02:53;;;;;;;4.45;1.38;;;25.80;76.20;;;;;;7343544;19;108972;-79
2022/07/14 12:05:28;;;;;;;8.13;1.23;;;25.70;76.30;;;;;;7342280;19;108688;-80
2022/07/14 12:07:55;;;;;;;8.05;1.27;;;25.90;78.90;;;;;;7340761;19;108953;-79
2022/07/14 12:10:40;;;;;;;7.30;1.40;;;26.00;77.40;;;;;;7341073;19;107949;-79
2022/07/14 12:13:09;;;;;;;6.47;1.45;;;26.10;77.10;;;;;;7339764;19;108272;-79
2022/07/14 12:15:36;;;;;;;5.68;1.38;;;26.00;76.80;;;;;;7338308;19;112464;-78
2022/07/14 12:18:05;;;;;;;6.45;1.02;;;25.90;77.90;;;;;;7341026;19;108028;-78
2022/07/14 12:20:45;;;;;;;6.53;1.33;;;26.00;77.70;;;;;;7346629;19;107308;-79
2022/07/14 12:23:14;;;;;;;4.68;1.05;;;26.20;77.00;;;;;;7340437;19;107074;-78
2022/07/14 12:25:43;;;;;;;14.50;1.33;;;26.20;78.10;;;;;;7339336;19;110970;-81
2022/07/14 12:28:14;;;;;;;2.55;0.90;;;26.40;78.40;;;;;;7335292;19;108112;-83
2022/07/14 12:30:51;;;;;;;5.13;1.00;;;26.80;75.50;;;;;;7336564;19;109375;-82
2022/07/14 12:33:27;;;;;;;2.85;1.00;;;27.00;75.00;;;;;;7340223;19;108740;-82
2022/07/14 12:35:57;;;;;;;5.63;1.27;;;27.30;73.90;;;;;;7338476;19;111237;-82
2022/07/14 12:38:26;;;;;;;4.32;0.90;;;27.30;72.30;;;;;;7340049;19;107397;-82
2022/07/14 12:41:00;;;;;;;6.60;0.85;;;27.30;71.60;;;;;;7343580;19;108274;-83
2022/07/14 12:43:37;;;;;;;3.20;1.20;;;26.90;69.50;;;;;;7342304;19;107825;-83
2022/07/14 12:46:07;;;;;;;4.82;0.90;;;26.60;69.90;;;;;;7339423;19;108404;-83
2022/07/14 12:48:56;;;;;;;5.20;0.88;;;26.40;70.40;;;;;;7338095;19;108571;-83
2022/07/14 12:51:43;;;;;;;4.95;1.10;;;26.40;70.00;;;;;;7339873;19;110466;-82
2022/07/14 12:54:15;;;;;;;4.40;1.05;;;26.40;71.70;;;;;;7341272;19;107204;-83
2022/07/14 12:57:03;;;;;;;11.23;1.27;;;26.60;73.70;;;;;;7338570;19;109389;-83
2022/07/14 12:59:33;;;;;;;3.50;1.20;;;27.00;73.40;;;;;;7338280;19;107517;-83
2022/07/14 13:02:06;;;;;;;3.50;1.05;;;27.30;72.40;;;;;;7338799;19;108630;-84